^^
Historische Daten
 
Tag Summe für Oktober 21, 2018 Einheit:  Metric    English   Beide
« vorheriger Tag
nächster Tag »
Tag Woche Monat Jahr Benutzerdefiniert
  Aktuell: Max: Min: Durchschnitt:
Temperatur: 6.3 °C 6.3 °C 4.7 °C 5.1 °C
Tau Punkt: 5.1 °C 5.1 °C 3.2 °C 3.9 °C
Luftfeuchte: 92% 96% 89% 92%
Windgeschwindigkeit: 5.6km/h 13.0km/h 0.0km/h 6.3km/h
Wind Böen: 1.8km/h 7.9km/h - -
WindNNE - - South
Luftdruck: 1029.7 hPa 1029.8 hPa 1028.1 hPa -
Niederschlag: 0.0 mm      
Historical Graphs
 
 
Tabellendaten für Oktober 21, 2018
Zeit Temperatur Tau Punkt Luftdruck Wind Windgeschwindigkeit Wind Böen Luftfeuchte Regen Rate (Stunde) Solar Conditions
00:04 4.9 °C 3.2 °C 1029.2 hPa NNE 5.6 km/h 0.6 km/h 89% 0.0 mm 0.00 W/m2 RA
00:09 4.9 °C 3.3 °C 1029.1 hPa NNW 5.6 km/h 1.9 km/h 89% 0.0 mm 0.00 W/m2 RA
00:14 4.9 °C 3.3 °C 1029.2 hPa NNE 1.9 km/h 1.6 km/h 89% 0.0 mm 0.00 W/m2 BKN
00:19 5.0 °C 3.3 °C 1029.2 hPa NNE 3.7 km/h 1.6 km/h 89% 0.0 mm 0.00 W/m2 BKN
00:24 5.0 °C 3.3 °C 1029.1 hPa NNW 1.6 km/h 0.8 km/h 89% 0.0 mm 0.00 W/m2 BKN
00:29 5.0 °C 3.3 °C 1029.2 hPa NNE 3.7 km/h 1.1 km/h 89% 0.0 mm 0.00 W/m2 BKN
00:34 5.0 °C 3.3 °C 1029.2 hPa North 7.4 km/h 3.7 km/h 89% 0.0 mm 0.00 W/m2 BKN
00:39 5.0 °C 3.3 °C 1029.1 hPa NNW 7.4 km/h 4.5 km/h 89% 0.0 mm 0.00 W/m2 BKN
00:44 5.0 °C 3.3 °C 1029.1 hPa North 9.3 km/h 4.2 km/h 89% 0.0 mm 0.00 W/m2 BKN
00:49 4.9 °C 3.3 °C 1029.1 hPa North 5.6 km/h 1.6 km/h 89% 0.0 mm 0.00 W/m2 BKN
00:54 4.9 °C 3.3 °C 1029.0 hPa NNW 5.6 km/h 0.3 km/h 89% 0.0 mm 0.00 W/m2 BKN
00:59 4.9 °C 3.3 °C 1029.0 hPa NNW 3.7 km/h 1.4 km/h 89% 0.0 mm 0.00 W/m2 BKN
01:04 4.9 °C 3.3 °C 1028.9 hPa North 1.9 km/h 0.8 km/h 89% 0.0 mm 0.00 W/m2 BKN
01:09 4.9 °C 3.3 °C 1028.9 hPa NNW 5.6 km/h 1.8 km/h 89% 0.0 mm 0.00 W/m2 BKN
01:14 5.0 °C 3.3 °C 1028.9 hPa NNE 3.4 km/h 1.4 km/h 89% 0.0 mm 0.00 W/m2 BKN
01:19 5.1 °C 3.4 °C 1028.8 hPa NE 5.1 km/h 0.6 km/h 89% 0.0 mm 0.00 W/m2 BKN
01:24 5.1 °C 3.4 °C 1028.8 hPa North 7.4 km/h 1.9 km/h 89% 0.0 mm 0.00 W/m2 BKN
01:29 5.1 °C 3.4 °C 1028.7 hPa North 5.6 km/h 2.9 km/h 89% 0.0 mm 0.00 W/m2 BKN
01:34 5.1 °C 3.4 °C 1028.7 hPa North 7.4 km/h 0.8 km/h 89% 0.0 mm 0.00 W/m2 BKN
01:39 5.0 °C 3.3 °C 1028.7 hPa North 3.7 km/h 0.6 km/h 89% 0.0 mm 0.00 W/m2 BKN
01:44 4.9 °C 3.3 °C 1028.7 hPa North 1.9 km/h   89% 0.0 mm 0.00 W/m2 BKN
01:49 4.9 °C 3.3 °C 1028.7 hPa Calm   1.0 km/h 89% 0.0 mm 0.00 W/m2 BKN
01:54 5.0 °C 3.3 °C 1028.6 hPa NNE 1.6 km/h 1.1 km/h 89% 0.0 mm 0.00 W/m2 BKN
01:59 5.1 °C 3.4 °C 1028.6 hPa NNW 5.6 km/h 3.1 km/h 89% 0.0 mm 0.00 W/m2 BKN
02:04 5.1 °C 3.4 °C 1028.7 hPa NNW 7.4 km/h 4.2 km/h 89% 0.0 mm 0.00 W/m2 BKN
02:09 5.1 °C 3.4 °C 1028.7 hPa NNE 5.6 km/h 1.4 km/h 89% 0.0 mm 0.00 W/m2 BKN
02:14 5.2 °C 3.5 °C 1028.6 hPa Calm   1.0 km/h 89% 0.0 mm 0.00 W/m2 BKN
02:19 5.2 °C 3.6 °C 1028.6 hPa North 3.7 km/h 0.2 km/h 89% 0.0 mm 0.00 W/m2 BKN
02:24 5.3 °C 3.7 °C 1028.5 hPa North 5.6 km/h   89% 0.0 mm 0.00 W/m2 BKN
02:29 5.4 °C 3.8 °C 1028.5 hPa North 3.7 km/h 1.0 km/h 89% 0.0 mm 0.00 W/m2 BKN
02:34 5.4 °C 3.7 °C 1028.5 hPa North 3.7 km/h 1.3 km/h 89% 0.0 mm 0.00 W/m2 BKN
02:39 5.3 °C 3.7 °C 1028.6 hPa Calm     89% 0.0 mm 0.00 W/m2 BKN
02:44 5.3 °C 3.7 °C 1028.6 hPa NNW 5.6 km/h 1.1 km/h 89% 0.0 mm 0.00 W/m2 BKN
02:49 5.3 °C 3.8 °C 1028.5 hPa North 1.9 km/h 0.8 km/h 90% 0.0 mm 0.00 W/m2 BKN
02:54 5.3 °C 3.8 °C 1028.6 hPa NNW 7.4 km/h 2.7 km/h 90% 0.0 mm 0.00 W/m2 BKN
02:59 5.2 °C 3.7 °C 1028.6 hPa NNE 7.4 km/h 2.9 km/h 90% 0.0 mm 0.00 W/m2 BKN
03:04 5.2 °C 3.7 °C 1028.5 hPa NE 5.6 km/h 1.8 km/h 90% 0.0 mm 0.00 W/m2 BKN
03:09 5.2 °C 3.8 °C 1028.5 hPa North 5.6 km/h 3.2 km/h 91% 0.0 mm 0.00 W/m2 BKN
03:14 5.2 °C 3.8 °C 1028.5 hPa NNE 5.1 km/h 1.8 km/h 91% 0.0 mm 0.00 W/m2 BKN
03:19 5.2 °C 3.8 °C 1028.5 hPa NNE 3.7 km/h 0.2 km/h 91% 0.0 mm 0.00 W/m2 BKN
03:24 5.2 °C 3.8 °C 1028.3 hPa NW 5.6 km/h 1.0 km/h 91% 0.0 mm 0.00 W/m2 BKN
03:29 5.2 °C 3.8 °C 1028.4 hPa North 7.4 km/h 4.0 km/h 91% 0.0 mm 0.00 W/m2 BKN
03:34 5.2 °C 3.8 °C 1028.4 hPa NNE 5.6 km/h 3.5 km/h 91% 0.0 mm 0.00 W/m2 BKN
03:39 5.2 °C 3.8 °C 1028.5 hPa North 5.6 km/h 1.3 km/h 91% 0.0 mm 0.00 W/m2 BKN
03:44 5.2 °C 3.7 °C 1028.5 hPa NNW 5.6 km/h 3.2 km/h 90% 0.0 mm 0.00 W/m2 BKN
03:49 5.2 °C 3.8 °C 1028.5 hPa NNW 9.3 km/h 2.7 km/h 91% 0.0 mm 0.00 W/m2 BKN
03:54 5.2 °C 3.8 °C 1028.5 hPa North 3.7 km/h 1.1 km/h 91% 0.0 mm 0.00 W/m2 BKN
03:59 5.2 °C 3.8 °C 1028.5 hPa NNE 5.6 km/h   91% 0.0 mm 0.00 W/m2 BKN
04:04 5.2 °C 3.9 °C 1028.5 hPa North 9.3 km/h 1.1 km/h 91% 0.0 mm 0.00 W/m2 BKN
04:09 5.2 °C 3.9 °C 1028.5 hPa North 8.4 km/h 6.3 km/h 91% 0.0 mm 0.00 W/m2 BKN
04:14 5.2 °C 3.8 °C 1028.4 hPa NW 6.8 km/h 0.5 km/h 91% 0.0 mm 0.00 W/m2 BKN
04:19 5.2 °C 3.8 °C 1028.4 hPa North 7.4 km/h 1.4 km/h 91% 0.0 mm 0.00 W/m2 BKN
04:24 5.2 °C 3.8 °C 1028.4 hPa North 3.7 km/h 1.9 km/h 91% 0.0 mm 0.00 W/m2 BKN
04:29 5.2 °C 3.9 °C 1028.4 hPa Calm     91% 0.0 mm 0.00 W/m2 BKN
04:34 5.2 °C 4.0 °C 1028.4 hPa NNE 5.6 km/h 1.9 km/h 92% 0.0 mm 0.00 W/m2 BKN
04:39 5.2 °C 4.0 °C 1028.4 hPa North 5.6 km/h 1.6 km/h 92% 0.0 mm 0.00 W/m2 BKN
04:44 5.2 °C 4.0 °C 1028.4 hPa NNE 11.1 km/h 4.8 km/h 92% 0.0 mm 0.00 W/m2 BKN
04:49 5.2 °C 4.0 °C 1028.4 hPa NNE 6.8 km/h 4.2 km/h 92% 0.0 mm 0.00 W/m2 BKN
04:54 5.2 °C 4.0 °C 1028.3 hPa NNE 7.4 km/h 2.7 km/h 92% 0.0 mm 0.00 W/m2 BKN
04:59 5.2 °C 4.0 °C 1028.3 hPa North 1.9 km/h 1.0 km/h 92% 0.0 mm 0.00 W/m2 BKN
05:04 5.2 °C 4.0 °C 1028.4 hPa NNW 7.4 km/h 3.4 km/h 92% 0.0 mm 0.00 W/m2 BKN
05:09 5.1 °C 3.9 °C 1028.4 hPa North 1.6 km/h 1.4 km/h 92% 0.0 mm 0.00 W/m2 BKN
05:14 5.1 °C 3.9 °C 1028.4 hPa North 7.4 km/h 4.8 km/h 92% 0.0 mm 0.00 W/m2 BKN
05:19 5.1 °C 4.1 °C 1028.4 hPa NNW 11.1 km/h 5.0 km/h 93% 0.0 mm 0.00 W/m2 BKN
05:24 5.1 °C 4.1 °C 1028.4 hPa NNW 5.6 km/h 1.0 km/h 93% 0.0 mm 0.00 W/m2 BKN
05:29 5.1 °C 4.0 °C 1028.3 hPa North 9.3 km/h 2.4 km/h 93% 0.0 mm 0.00 W/m2 BKN
05:34 5.1 °C 4.0 °C 1028.3 hPa NNW 7.4 km/h 2.4 km/h 93% 0.0 mm 0.00 W/m2 BKN
05:39 5.0 °C 3.9 °C 1028.3 hPa NW 9.3 km/h 2.9 km/h 93% 0.0 mm 0.00 W/m2 BKN
05:44 5.1 °C 4.0 °C 1028.3 hPa North 9.3 km/h 4.2 km/h 93% 0.0 mm 0.00 W/m2 BKN
05:49 5.1 °C 4.0 °C 1028.3 hPa NNW 13.0 km/h 5.3 km/h 93% 0.0 mm 0.00 W/m2 BKN
05:54 5.0 °C 3.9 °C 1028.4 hPa North 3.7 km/h 2.9 km/h 93% 0.0 mm 0.00 W/m2 BKN
05:59 4.9 °C 3.9 °C 1028.4 hPa NNE 7.4 km/h 3.4 km/h 93% 0.0 mm 0.00 W/m2 BKN
06:04 4.9 °C 3.9 °C 1028.4 hPa North 9.3 km/h 3.1 km/h 93% 0.0 mm 0.00 W/m2 BKN
06:09 4.9 °C 3.9 °C 1028.3 hPa North 8.4 km/h 3.5 km/h 93% 0.0 mm 0.00 W/m2 BKN
06:14 4.9 °C 3.8 °C 1028.3 hPa North 9.3 km/h 3.2 km/h 93% 0.0 mm 0.00 W/m2 BKN
06:19 4.9 °C 4.0 °C 1028.3 hPa NNW 9.3 km/h 4.7 km/h 94% 0.0 mm 0.00 W/m2 BKN
06:24 4.9 °C 4.0 °C 1028.3 hPa NNW 1.9 km/h 1.6 km/h 94% 0.0 mm 0.00 W/m2 BKN
06:29 4.9 °C 4.0 °C 1028.3 hPa North 13.0 km/h 5.0 km/h 94% 0.0 mm 0.00 W/m2 BKN
06:34 4.9 °C 4.0 °C 1028.2 hPa NNE 9.3 km/h 3.5 km/h 94% 0.0 mm 0.00 W/m2 BKN
06:39 4.9 °C 4.0 °C 1028.1 hPa NNW 5.1 km/h 2.4 km/h 94% 0.0 mm 0.00 W/m2 BKN
06:44 4.9 °C 4.0 °C 1028.2 hPa North 9.3 km/h 3.5 km/h 94% 0.0 mm 0.00 W/m2 BKN
06:49 4.9 °C 4.1 °C 1028.2 hPa North 7.4 km/h 4.7 km/h 94% 0.0 mm 0.00 W/m2 BKN
06:54 4.9 °C 4.1 °C 1028.1 hPa North 8.4 km/h 2.6 km/h 94% 0.0 mm 0.00 W/m2 BKN
06:59 4.9 °C 4.1 °C 1028.2 hPa North 3.7 km/h 1.1 km/h 94% 0.0 mm 0.00 W/m2 BKN
07:04 4.9 °C 4.1 °C 1028.3 hPa NNW 9.3 km/h 3.9 km/h 94% 0.0 mm 0.00 W/m2 BKN
07:09 4.9 °C 4.2 °C 1028.3 hPa NW 7.4 km/h 2.9 km/h 95% 0.0 mm 0.00 W/m2 BKN
07:14 4.8 °C 4.1 °C 1028.4 hPa North 9.3 km/h 3.7 km/h 95% 0.0 mm 0.00 W/m2 SCT
07:19 4.8 °C 4.1 °C 1028.4 hPa NNE 7.4 km/h 5.5 km/h 95% 0.0 mm 0.00 W/m2 SCT
07:24 4.8 °C 4.1 °C 1028.4 hPa NW 8.4 km/h 4.5 km/h 95% 0.0 mm 0.00 W/m2 SCT
07:29 4.8 °C 4.1 °C 1028.4 hPa NNW 7.4 km/h 6.0 km/h 95% 0.0 mm 0.00 W/m2 SCT
07:34 4.8 °C 4.1 °C 1028.4 hPa NNW 7.4 km/h 6.3 km/h 95% 0.0 mm 0.00 W/m2 SCT
07:39 4.7 °C 3.9 °C 1028.4 hPa North 3.7 km/h 3.9 km/h 95% 0.0 mm 0.00 W/m2 SCT
07:44 4.7 °C 3.9 °C 1028.5 hPa NNW 7.4 km/h 2.1 km/h 95% 0.0 mm 0.00 W/m2 SCT
07:49 4.7 °C 3.9 °C 1028.5 hPa NNE 7.4 km/h 2.4 km/h 95% 0.0 mm 0.00 W/m2 SCT
07:54 4.7 °C 4.0 °C 1028.6 hPa North 5.6 km/h 1.6 km/h 95% 0.0 mm 5.00 W/m2 SCT
07:59 4.8 °C 4.1 °C 1028.6 hPa NNW 7.4 km/h 1.9 km/h 95% 0.0 mm 5.00 W/m2 SCT
08:04 4.8 °C 4.1 °C 1028.7 hPa North 9.3 km/h 4.2 km/h 95% 0.0 mm 5.00 W/m2 SCT
08:09 4.8 °C 4.1 °C 1028.7 hPa NNE 9.3 km/h 3.7 km/h 95% 0.0 mm 11.00 W/m2 SCT
08:14 4.8 °C 4.1 °C 1028.7 hPa NNW 7.4 km/h 3.7 km/h 95% 0.0 mm 12.00 W/m2 SCT
08:19 4.8 °C 4.1 °C 1028.7 hPa NNW 3.7 km/h 0.3 km/h 95% 0.0 mm 11.00 W/m2 SCT
08:24 4.8 °C 4.1 °C 1028.8 hPa North 11.1 km/h 1.8 km/h 95% 0.0 mm 9.00 W/m2 SCT
08:29 4.8 °C 4.1 °C 1028.9 hPa NNE 5.6 km/h 3.2 km/h 95% 0.0 mm 12.00 W/m2 SCT
08:34 4.8 °C 4.1 °C 1028.9 hPa NNE 5.6 km/h 2.9 km/h 95% 0.0 mm 16.00 W/m2 SCT
08:39 4.9 °C 4.2 °C 1029.0 hPa NNE 3.4 km/h 6.3 km/h 95% 0.0 mm 25.00 W/m2 SCT
08:44 4.9 °C 4.2 °C 1029.1 hPa NNE 7.4 km/h 4.5 km/h 95% 0.0 mm 40.00 W/m2 SCT
08:49 4.9 °C 4.2 °C 1029.1 hPa NNW 13.0 km/h 5.0 km/h 95% 0.0 mm 32.00 W/m2 SCT
08:54 5.0 °C 4.3 °C 1029.1 hPa NNE 6.8 km/h 1.8 km/h 95% 0.0 mm 28.00 W/m2 SCT
08:59 4.9 °C 4.2 °C 1029.1 hPa NNW 9.3 km/h 7.9 km/h 95% 0.0 mm 56.00 W/m2 SCT
09:04 5.0 °C 4.3 °C 1029.2 hPa NNE 5.6 km/h 3.7 km/h 95% 0.0 mm 44.00 W/m2 SCT
09:09 5.1 °C 4.3 °C 1029.3 hPa North 7.4 km/h 4.7 km/h 95% 0.0 mm 35.00 W/m2 SCT
09:14 5.1 °C 4.3 °C 1029.4 hPa NE 9.3 km/h 3.9 km/h 95% 0.0 mm 77.00 W/m2 FEW
09:19 5.2 °C 4.6 °C 1029.5 hPa NNE 5.6 km/h 2.3 km/h 96% 0.0 mm 54.00 W/m2 FEW
09:24 5.2 °C 4.5 °C 1029.5 hPa NNE 5.6 km/h 2.9 km/h 95% 0.0 mm 54.00 W/m2 FEW
09:29 5.2 °C 4.5 °C 1029.5 hPa NNE 8.4 km/h 4.2 km/h 95% 0.0 mm 77.00 W/m2 FEW
09:34 5.3 °C 4.6 °C 1029.6 hPa NNE 6.8 km/h 4.3 km/h 95% 0.0 mm 60.00 W/m2 FEW
09:39 5.2 °C 4.5 °C 1029.5 hPa NNW 6.8 km/h 3.9 km/h 95% 0.0 mm 105.00 W/m2 FEW
09:44 5.2 °C 4.5 °C 1029.4 hPa NNW 5.6 km/h 4.7 km/h 95% 0.0 mm 49.00 W/m2 FEW
09:49 5.2 °C 4.4 °C 1029.6 hPa NNE 9.3 km/h 5.0 km/h 95% 0.0 mm 100.00 W/m2 FEW
09:54 5.3 °C 4.6 °C 1029.5 hPa North 6.8 km/h 2.4 km/h 95% 0.0 mm 116.00 W/m2 FEW
09:59 5.4 °C 4.6 °C 1029.5 hPa North 9.3 km/h 5.1 km/h 94% 0.0 mm 79.00 W/m2 FEW
10:04 5.3 °C 4.4 °C 1029.6 hPa North 9.3 km/h 1.8 km/h 94% 0.0 mm 62.00 W/m2 FEW
10:09 5.4 °C 4.5 °C 1029.6 hPa NNW 1.9 km/h 3.7 km/h 94% 0.0 mm 364.00 W/m2 FEW
10:14 5.6 °C 4.6 °C 1029.7 hPa NNE 1.9 km/h 1.0 km/h 93% 0.0 mm 81.00 W/m2 FEW
10:19 5.8 °C 4.8 °C 1029.8 hPa North 5.6 km/h 1.8 km/h 93% 0.0 mm 413.00 W/m2 FEW
10:24 6.3 °C 5.1 °C 1029.7 hPa NNE 5.6 km/h 1.8 km/h 92% 0.0 mm 345.00 W/m2 FEW
© Wetterstation-Johanngeorgenstadt 2010-2018
Besucherstatistik
Besucher gesamt: 1.134.215
Besucher heute: 214
Besucher gestern: 568
gerade online: 12
Seitenaufrufe diese Seite: 4.002
counter Statistiken